Main page
Satellite images 15-day forecastsClimateMarine weather Cyclones Lightning AirportsFAQ Newsletter About
Weather : Europe Africa North America South America Asia Australia-Oceania Others
Languages Contact

Frankfurt, Germany

latitude: 50-03N, longitude: 008-36E, elevation: 111 m


METAR: EDDF 240050Z 03006KT CAVOK 12/08 Q1019 NOSIG
short-TAF: out of date (47904 hours)
long-TAF: EDDF 231700Z 2318/2424 04004KT CAVOK PROB30 TEMPO 2413/2418 TSRA BKN050CB

Time: 03:11 (01:11 UTC)

Current weather observation

The report was made 21 minutes ago, at 00:50 UTC  
Wind 06 kt from north/northeast
Temperature 12°C
Humidity 76%
Pressure 1019 hPa
Visibility 10 km or more
no clouds below 1500 m and no cumulonimbus

Change units

Forecast

The report was made 7 hours and 43 minutes ago, at 17:28 UTC  
Forecast valid from 23 at 18 UTC to 24 at 24 UTC
Wind 04 kt from northeast
Visibility 10 km or more
no clouds below 1500 m and no cumulonimbus
Probability 30% :
Temporary
from 24 at 13 UTC to 24 at 18 UTC
Broken clouds at a height of 5000 ft , Cumulonimbus.
thunderstorm rain
The information on this site is subject to a disclaimer
Weather : Europe Africa North America South America Asia Australia-Oceania Others
Satellite images 15-day forecastsClimateMarine weather Cyclones Lightning AirportsFAQ Languages Contact Newsletter About